sensor_id;sensor_type;location;lat;lon;timestamp;temperature;humidity
52044;DHT22;38053;53.100;6.078;2023-02-28T00:00:37;4.10;99.90
52044;DHT22;38053;53.100;6.078;2023-02-28T00:03:03;4.10;99.90
52044;DHT22;38053;53.100;6.078;2023-02-28T00:05:29;4.10;99.90
52044;DHT22;38053;53.100;6.078;2023-02-28T00:07:55;4.10;99.90
52044;DHT22;38053;53.100;6.078;2023-02-28T00:10:24;4.10;99.90
52044;DHT22;38053;53.100;6.078;2023-02-28T00:13:03;4.10;99.90
52044;DHT22;38053;53.100;6.078;2023-02-28T00:15:30;4.10;99.90
52044;DHT22;38053;53.100;6.078;2023-02-28T00:17:56;4.00;99.90
52044;DHT22;38053;53.100;6.078;2023-02-28T00:20:23;4.00;99.90
52044;DHT22;38053;53.100;6.078;2023-02-28T00:22:51;4.10;99.90
52044;DHT22;38053;53.100;6.078;2023-02-28T00:25:21;4.10;99.90
52044;DHT22;38053;53.100;6.078;2023-02-28T00:27:50;4.10;99.90
52044;DHT22;38053;53.100;6.078;2023-02-28T00:30:23;4.10;99.90
52044;DHT22;38053;53.100;6.078;2023-02-28T00:32:49;4.00;99.90
52044;DHT22;38053;53.100;6.078;2023-02-28T00:35:23;4.00;99.90
52044;DHT22;38053;53.100;6.078;2023-02-28T00:37:49;4.00;99.90
52044;DHT22;38053;53.100;6.078;2023-02-28T00:40:15;4.00;99.90
52044;DHT22;38053;53.100;6.078;2023-02-28T00:42:40;4.00;99.90
52044;DHT22;38053;53.100;6.078;2023-02-28T00:45:07;3.90;99.90
52044;DHT22;38053;53.100;6.078;2023-02-28T00:47:33;3.90;99.90
52044;DHT22;38053;53.100;6.078;2023-02-28T00:49:59;3.90;99.90
52044;DHT22;38053;53.100;6.078;2023-02-28T00:52:25;3.90;99.90
52044;DHT22;38053;53.100;6.078;2023-02-28T00:54:50;3.90;99.90
52044;DHT22;38053;53.100;6.078;2023-02-28T00:57:16;3.90;99.90
52044;DHT22;38053;53.100;6.078;2023-02-28T00:59:42;3.90;99.90
52044;DHT22;38053;53.100;6.078;2023-02-28T01:02:08;3.90;99.90
52044;DHT22;38053;53.100;6.078;2023-02-28T01:04:37;3.90;99.90
52044;DHT22;38053;53.100;6.078;2023-02-28T01:07:03;3.90;99.90
52044;DHT22;38053;53.100;6.078;2023-02-28T01:09:29;3.80;99.90
52044;DHT22;38053;53.100;6.078;2023-02-28T01:11:54;3.90;99.90
52044;DHT22;38053;53.100;6.078;2023-02-28T01:14:20;3.90;99.90
52044;DHT22;38053;53.100;6.078;2023-02-28T01:16:46;3.90;99.90
52044;DHT22;38053;53.100;6.078;2023-02-28T01:19:12;3.90;99.90
52044;DHT22;38053;53.100;6.078;2023-02-28T01:21:38;3.90;99.90
52044;DHT22;38053;53.100;6.078;2023-02-28T01:24:04;3.90;99.90
52044;DHT22;38053;53.100;6.078;2023-02-28T01:26:34;3.90;99.90
52044;DHT22;38053;53.100;6.078;2023-02-28T01:29:00;3.90;99.90
52044;DHT22;38053;53.100;6.078;2023-02-28T01:31:29;3.90;99.90
52044;DHT22;38053;53.100;6.078;2023-02-28T01:33:55;3.90;99.90
52044;DHT22;38053;53.100;6.078;2023-02-28T01:36:22;3.90;99.90
52044;DHT22;38053;53.100;6.078;2023-02-28T01:38:49;3.90;99.90
52044;DHT22;38053;53.100;6.078;2023-02-28T01:41:21;3.90;99.90
52044;DHT22;38053;53.100;6.078;2023-02-28T01:46:14;3.90;99.90
52044;DHT22;38053;53.100;6.078;2023-02-28T01:51:17;3.80;99.90
52044;DHT22;38053;53.100;6.078;2023-02-28T01:53:48;3.80;99.90
52044;DHT22;38053;53.100;6.078;2023-02-28T01:56:17;3.80;99.90
52044;DHT22;38053;53.100;6.078;2023-02-28T01:58:47;3.80;99.90
52044;DHT22;38053;53.100;6.078;2023-02-28T02:01:14;3.80;99.90
52044;DHT22;38053;53.100;6.078;2023-02-28T02:03:49;3.80;99.90
52044;DHT22;38053;53.100;6.078;2023-02-28T02:06:44;3.80;99.90
52044;DHT22;38053;53.100;6.078;2023-02-28T02:09:12;3.80;99.90
52044;DHT22;38053;53.100;6.078;2023-02-28T02:11:41;3.80;99.90
52044;DHT22;38053;53.100;6.078;2023-02-28T02:14:22;3.80;99.90
52044;DHT22;38053;53.100;6.078;2023-02-28T02:17:14;3.80;99.90
52044;DHT22;38053;53.100;6.078;2023-02-28T02:25:26;3.90;99.90
52044;DHT22;38053;53.100;6.078;2023-02-28T02:36:25;3.90;99.90
52044;DHT22;38053;53.100;6.078;2023-02-28T02:41:45;3.90;99.90
52044;DHT22;38053;53.100;6.078;2023-02-28T02:44:24;3.90;99.90
52044;DHT22;38053;53.100;6.078;2023-02-28T02:47:13;3.90;99.90
52044;DHT22;38053;53.100;6.078;2023-02-28T02:49:42;3.90;99.90
52044;DHT22;38053;53.100;6.078;2023-02-28T02:52:11;3.90;99.90
52044;DHT22;38053;53.100;6.078;2023-02-28T02:54:44;3.90;99.90
52044;DHT22;38053;53.100;6.078;2023-02-28T02:57:37;3.90;99.90
52044;DHT22;38053;53.100;6.078;2023-02-28T03:00:04;4.00;99.90
52044;DHT22;38053;53.100;6.078;2023-02-28T03:02:35;4.00;99.90
52044;DHT22;38053;53.100;6.078;2023-02-28T03:05:08;4.00;99.90
52044;DHT22;38053;53.100;6.078;2023-02-28T03:07:37;4.00;99.90
52044;DHT22;38053;53.100;6.078;2023-02-28T03:10:25;4.00;99.90
52044;DHT22;38053;53.100;6.078;2023-02-28T03:12:56;3.90;99.90
52044;DHT22;38053;53.100;6.078;2023-02-28T03:15:32;4.00;99.90
52044;DHT22;38053;53.100;6.078;2023-02-28T03:18:16;3.90;99.90
52044;DHT22;38053;53.100;6.078;2023-02-28T03:23:42;3.90;99.90
52044;DHT22;38053;53.100;6.078;2023-02-28T03:26:22;3.90;99.90
52044;DHT22;38053;53.100;6.078;2023-02-28T03:31:37;3.90;99.90
52044;DHT22;38053;53.100;6.078;2023-02-28T03:34:21;3.90;99.90
52044;DHT22;38053;53.100;6.078;2023-02-28T03:36:51;3.90;99.90
52044;DHT22;38053;53.100;6.078;2023-02-28T03:39:34;3.90;99.90
52044;DHT22;38053;53.100;6.078;2023-02-28T03:42:05;3.90;99.90
52044;DHT22;38053;53.100;6.078;2023-02-28T03:44:41;3.90;99.90
52044;DHT22;38053;53.100;6.078;2023-02-28T03:47:15;3.90;99.90
52044;DHT22;38053;53.100;6.078;2023-02-28T03:49:49;3.90;99.90
52044;DHT22;38053;53.100;6.078;2023-02-28T03:52:18;3.90;99.90
52044;DHT22;38053;53.100;6.078;2023-02-28T03:54:48;3.90;99.90
52044;DHT22;38053;53.100;6.078;2023-02-28T03:57:37;3.90;99.90
52044;DHT22;38053;53.100;6.078;2023-02-28T04:00:14;3.90;99.90
52044;DHT22;38053;53.100;6.078;2023-02-28T04:02:41;3.90;99.90
52044;DHT22;38053;53.100;6.078;2023-02-28T04:05:08;3.90;99.90
52044;DHT22;38053;53.100;6.078;2023-02-28T04:07:34;3.90;99.90
52044;DHT22;38053;53.100;6.078;2023-02-28T04:10:00;3.90;99.90
52044;DHT22;38053;53.100;6.078;2023-02-28T04:12:25;3.90;99.90
52044;DHT22;38053;53.100;6.078;2023-02-28T04:14:51;3.90;99.90
52044;DHT22;38053;53.100;6.078;2023-02-28T04:17:17;3.90;99.90
52044;DHT22;38053;53.100;6.078;2023-02-28T04:19:44;3.90;99.90
52044;DHT22;38053;53.100;6.078;2023-02-28T04:22:10;4.00;99.90
52044;DHT22;38053;53.100;6.078;2023-02-28T04:24:36;4.00;99.90
52044;DHT22;38053;53.100;6.078;2023-02-28T04:27:02;4.00;99.90
52044;DHT22;38053;53.100;6.078;2023-02-28T04:29:31;4.00;99.90
52044;DHT22;38053;53.100;6.078;2023-02-28T04:31:59;3.90;99.90
52044;DHT22;38053;53.100;6.078;2023-02-28T04:34:26;3.90;99.90
52044;DHT22;38053;53.100;6.078;2023-02-28T04:36:53;3.90;99.90
52044;DHT22;38053;53.100;6.078;2023-02-28T04:39:24;3.80;99.90
52044;DHT22;38053;53.100;6.078;2023-02-28T04:41:50;3.80;99.90
52044;DHT22;38053;53.100;6.078;2023-02-28T04:44:16;3.80;99.90
52044;DHT22;38053;53.100;6.078;2023-02-28T04:46:42;3.70;99.90
52044;DHT22;38053;53.100;6.078;2023-02-28T04:49:12;3.70;99.90
52044;DHT22;38053;53.100;6.078;2023-02-28T04:51:38;3.60;99.90
52044;DHT22;38053;53.100;6.078;2023-02-28T04:54:04;3.60;99.90
52044;DHT22;38053;53.100;6.078;2023-02-28T04:56:29;3.60;99.90
52044;DHT22;38053;53.100;6.078;2023-02-28T04:58:55;3.60;99.90
52044;DHT22;38053;53.100;6.078;2023-02-28T05:01:30;3.50;99.90
52044;DHT22;38053;53.100;6.078;2023-02-28T05:03:57;3.50;99.90
52044;DHT22;38053;53.100;6.078;2023-02-28T05:06:26;3.50;99.90
52044;DHT22;38053;53.100;6.078;2023-02-28T05:08:52;3.50;99.90
52044;DHT22;38053;53.100;6.078;2023-02-28T05:11:33;3.40;99.90
52044;DHT22;38053;53.100;6.078;2023-02-28T05:14:12;3.40;99.90
52044;DHT22;38053;53.100;6.078;2023-02-28T05:16:38;3.40;99.90
52044;DHT22;38053;53.100;6.078;2023-02-28T05:19:04;3.30;99.90
52044;DHT22;38053;53.100;6.078;2023-02-28T05:21:36;3.20;99.90
52044;DHT22;38053;53.100;6.078;2023-02-28T05:24:05;3.20;99.90
52044;DHT22;38053;53.100;6.078;2023-02-28T05:26:33;3.20;99.90
52044;DHT22;38053;53.100;6.078;2023-02-28T05:28:59;3.20;99.90
52044;DHT22;38053;53.100;6.078;2023-02-28T05:31:25;3.10;99.90
52044;DHT22;38053;53.100;6.078;2023-02-28T05:33:51;3.10;99.90
52044;DHT22;38053;53.100;6.078;2023-02-28T05:36:23;3.00;99.90
52044;DHT22;38053;53.100;6.078;2023-02-28T05:38:50;3.00;99.90
52044;DHT22;38053;53.100;6.078;2023-02-28T05:41:17;2.90;99.90
52044;DHT22;38053;53.100;6.078;2023-02-28T05:43:44;2.90;99.90
52044;DHT22;38053;53.100;6.078;2023-02-28T05:46:11;2.90;99.90
52044;DHT22;38053;53.100;6.078;2023-02-28T05:48:39;2.90;99.90
52044;DHT22;38053;53.100;6.078;2023-02-28T05:51:06;2.90;99.90
52044;DHT22;38053;53.100;6.078;2023-02-28T05:53:33;2.90;99.90
52044;DHT22;38053;53.100;6.078;2023-02-28T05:56:00;2.80;99.90
52044;DHT22;38053;53.100;6.078;2023-02-28T05:58:26;2.80;99.90
52044;DHT22;38053;53.100;6.078;2023-02-28T06:00:58;2.80;99.90
52044;DHT22;38053;53.100;6.078;2023-02-28T06:03:24;2.80;99.90
52044;DHT22;38053;53.100;6.078;2023-02-28T06:05:53;2.80;99.90
52044;DHT22;38053;53.100;6.078;2023-02-28T06:08:22;2.80;99.90
52044;DHT22;38053;53.100;6.078;2023-02-28T06:10:48;2.80;99.90
52044;DHT22;38053;53.100;6.078;2023-02-28T06:13:14;2.80;99.90
52044;DHT22;38053;53.100;6.078;2023-02-28T06:15:40;2.80;99.90
52044;DHT22;38053;53.100;6.078;2023-02-28T06:18:06;2.80;99.90
52044;DHT22;38053;53.100;6.078;2023-02-28T06:20:32;2.80;99.90
52044;DHT22;38053;53.100;6.078;2023-02-28T06:22:59;2.70;99.90
52044;DHT22;38053;53.100;6.078;2023-02-28T06:25:26;2.70;99.90
52044;DHT22;38053;53.100;6.078;2023-02-28T06:27:53;2.60;99.90
52044;DHT22;38053;53.100;6.078;2023-02-28T06:30:19;2.60;99.90
52044;DHT22;38053;53.100;6.078;2023-02-28T06:32:49;2.60;99.90
52044;DHT22;38053;53.100;6.078;2023-02-28T06:35:15;2.60;99.90
52044;DHT22;38053;53.100;6.078;2023-02-28T06:37:41;2.50;99.90
52044;DHT22;38053;53.100;6.078;2023-02-28T06:40:08;2.50;99.90
52044;DHT22;38053;53.100;6.078;2023-02-28T06:42:34;2.50;99.90
52044;DHT22;38053;53.100;6.078;2023-02-28T06:45:00;2.50;99.90
52044;DHT22;38053;53.100;6.078;2023-02-28T06:47:30;2.50;99.90
52044;DHT22;38053;53.100;6.078;2023-02-28T06:49:56;2.50;99.90
52044;DHT22;38053;53.100;6.078;2023-02-28T06:52:21;2.40;99.90
52044;DHT22;38053;53.100;6.078;2023-02-28T06:54:47;2.40;99.90
52044;DHT22;38053;53.100;6.078;2023-02-28T06:57:26;2.40;99.90
52044;DHT22;38053;53.100;6.078;2023-02-28T06:59:58;2.30;99.90
52044;DHT22;38053;53.100;6.078;2023-02-28T07:02:24;2.30;99.90
52044;DHT22;38053;53.100;6.078;2023-02-28T07:04:53;2.30;99.90
52044;DHT22;38053;53.100;6.078;2023-02-28T07:07:19;2.20;99.90
52044;DHT22;38053;53.100;6.078;2023-02-28T07:09:44;2.20;99.90
52044;DHT22;38053;53.100;6.078;2023-02-28T07:12:10;2.30;99.90
52044;DHT22;38053;53.100;6.078;2023-02-28T07:14:37;2.20;99.90
52044;DHT22;38053;53.100;6.078;2023-02-28T07:17:03;2.20;99.90
52044;DHT22;38053;53.100;6.078;2023-02-28T07:19:29;2.20;99.90
52044;DHT22;38053;53.100;6.078;2023-02-28T07:21:54;2.20;99.90
52044;DHT22;38053;53.100;6.078;2023-02-28T07:24:21;2.20;99.90
52044;DHT22;38053;53.100;6.078;2023-02-28T07:26:49;2.20;99.90
52044;DHT22;38053;53.100;6.078;2023-02-28T07:29:14;2.20;99.90
52044;DHT22;38053;53.100;6.078;2023-02-28T07:31:40;2.20;99.90
52044;DHT22;38053;53.100;6.078;2023-02-28T07:34:07;2.20;99.90
52044;DHT22;38053;53.100;6.078;2023-02-28T07:36:33;2.20;99.90
52044;DHT22;38053;53.100;6.078;2023-02-28T07:38:59;2.30;99.90
52044;DHT22;38053;53.100;6.078;2023-02-28T07:41:25;2.30;99.90
52044;DHT22;38053;53.100;6.078;2023-02-28T07:43:56;2.30;99.90
52044;DHT22;38053;53.100;6.078;2023-02-28T07:46:38;2.20;99.90
52044;DHT22;38053;53.100;6.078;2023-02-28T07:49:04;2.30;99.90
52044;DHT22;38053;53.100;6.078;2023-02-28T07:51:30;2.30;99.90
52044;DHT22;38053;53.100;6.078;2023-02-28T07:53:57;2.30;99.90
52044;DHT22;38053;53.100;6.078;2023-02-28T07:56:23;2.30;99.90
52044;DHT22;38053;53.100;6.078;2023-02-28T07:58:49;2.20;99.90
52044;DHT22;38053;53.100;6.078;2023-02-28T08:01:19;2.30;99.90
52044;DHT22;38053;53.100;6.078;2023-02-28T08:03:45;2.30;99.90
52044;DHT22;38053;53.100;6.078;2023-02-28T08:06:18;2.30;99.90
52044;DHT22;38053;53.100;6.078;2023-02-28T08:08:44;2.30;99.90
52044;DHT22;38053;53.100;6.078;2023-02-28T08:11:10;2.30;99.90
52044;DHT22;38053;53.100;6.078;2023-02-28T08:13:36;2.30;99.90
52044;DHT22;38053;53.100;6.078;2023-02-28T08:16:02;2.30;99.90
52044;DHT22;38053;53.100;6.078;2023-02-28T08:18:28;2.40;99.90
52044;DHT22;38053;53.100;6.078;2023-02-28T08:20:53;2.40;99.90
52044;DHT22;38053;53.100;6.078;2023-02-28T08:23:22;2.40;99.90
52044;DHT22;38053;53.100;6.078;2023-02-28T08:25:56;2.50;99.90
52044;DHT22;38053;53.100;6.078;2023-02-28T08:28:23;2.50;99.90
52044;DHT22;38053;53.100;6.078;2023-02-28T08:30:49;2.50;99.90
52044;DHT22;38053;53.100;6.078;2023-02-28T08:33:15;2.60;99.90
52044;DHT22;38053;53.100;6.078;2023-02-28T08:35:40;2.60;99.90
52044;DHT22;38053;53.100;6.078;2023-02-28T08:38:06;2.60;99.90
52044;DHT22;38053;53.100;6.078;2023-02-28T08:40:32;2.70;99.90
52044;DHT22;38053;53.100;6.078;2023-02-28T08:42:57;2.70;99.90
52044;DHT22;38053;53.100;6.078;2023-02-28T08:45:24;2.70;99.90
52044;DHT22;38053;53.100;6.078;2023-02-28T08:47:49;2.80;99.90
52044;DHT22;38053;53.100;6.078;2023-02-28T08:50:18;2.90;99.90
52044;DHT22;38053;53.100;6.078;2023-02-28T08:52:43;3.00;99.90
52044;DHT22;38053;53.100;6.078;2023-02-28T08:55:10;3.00;99.90
52044;DHT22;38053;53.100;6.078;2023-02-28T08:57:35;3.10;99.90
52044;DHT22;38053;53.100;6.078;2023-02-28T09:00:02;3.20;99.90
52044;DHT22;38053;53.100;6.078;2023-02-28T09:02:30;3.30;99.90
52044;DHT22;38053;53.100;6.078;2023-02-28T09:04:58;3.50;99.90
52044;DHT22;38053;53.100;6.078;2023-02-28T09:07:24;3.60;99.90
52044;DHT22;38053;53.100;6.078;2023-02-28T09:09:50;3.70;99.90
52044;DHT22;38053;53.100;6.078;2023-02-28T09:12:24;3.70;99.90
52044;DHT22;38053;53.100;6.078;2023-02-28T09:14:51;3.80;99.90
52044;DHT22;38053;53.100;6.078;2023-02-28T09:17:20;3.80;99.90
52044;DHT22;38053;53.100;6.078;2023-02-28T09:19:48;3.80;99.90
52044;DHT22;38053;53.100;6.078;2023-02-28T09:22:14;3.80;99.90
52044;DHT22;38053;53.100;6.078;2023-02-28T09:24:41;3.80;99.90
52044;DHT22;38053;53.100;6.078;2023-02-28T09:27:07;3.80;99.90
52044;DHT22;38053;53.100;6.078;2023-02-28T09:29:35;3.80;99.90
52044;DHT22;38053;53.100;6.078;2023-02-28T09:32:01;3.70;99.90
52044;DHT22;38053;53.100;6.078;2023-02-28T09:34:30;3.70;99.90
52044;DHT22;38053;53.100;6.078;2023-02-28T09:36:56;3.80;99.90
52044;DHT22;38053;53.100;6.078;2023-02-28T09:39:24;3.90;99.90
52044;DHT22;38053;53.100;6.078;2023-02-28T09:41:53;4.10;99.90
52044;DHT22;38053;53.100;6.078;2023-02-28T09:44:26;4.30;99.90
52044;DHT22;38053;53.100;6.078;2023-02-28T09:47:45;4.40;99.90
52044;DHT22;38053;53.100;6.078;2023-02-28T09:49:47;4.40;99.90
52044;DHT22;38053;53.100;6.078;2023-02-28T09:52:30;4.40;99.90
52044;DHT22;38053;53.100;6.078;2023-02-28T09:55:22;4.40;99.90
52044;DHT22;38053;53.100;6.078;2023-02-28T09:57:51;4.30;99.90
52044;DHT22;38053;53.100;6.078;2023-02-28T10:00:23;4.20;99.90
52044;DHT22;38053;53.100;6.078;2023-02-28T10:10:57;4.50;99.90
52044;DHT22;38053;53.100;6.078;2023-02-28T10:13:36;4.70;99.90
52044;DHT22;38053;53.100;6.078;2023-02-28T10:16:14;4.80;99.90
52044;DHT22;38053;53.100;6.078;2023-02-28T10:18:52;5.00;99.90
52044;DHT22;38053;53.100;6.078;2023-02-28T10:21:26;5.00;99.90
52044;DHT22;38053;53.100;6.078;2023-02-28T10:26:37;5.10;99.90
52044;DHT22;38053;53.100;6.078;2023-02-28T10:29:03;5.10;99.90
52044;DHT22;38053;53.100;6.078;2023-02-28T10:31:29;5.20;99.90
52044;DHT22;38053;53.100;6.078;2023-02-28T10:33:55;5.20;99.90
52044;DHT22;38053;53.100;6.078;2023-02-28T10:36:21;5.30;99.90
52044;DHT22;38053;53.100;6.078;2023-02-28T10:38:47;5.30;99.90
52044;DHT22;38053;53.100;6.078;2023-02-28T10:41:16;5.40;99.90
52044;DHT22;38053;53.100;6.078;2023-02-28T10:43:43;5.50;99.90
52044;DHT22;38053;53.100;6.078;2023-02-28T10:51:07;6.00;99.90
52044;DHT22;38053;53.100;6.078;2023-02-28T11:07:16;6.80;99.90
52044;DHT22;38053;53.100;6.078;2023-02-28T11:09:46;7.20;99.90
52044;DHT22;38053;53.100;6.078;2023-02-28T11:15:07;7.30;99.90
52044;DHT22;38053;53.100;6.078;2023-02-28T11:20:38;7.20;99.90
52044;DHT22;38053;53.100;6.078;2023-02-28T11:23:06;7.30;99.90
52044;DHT22;38053;53.100;6.078;2023-02-28T11:25:38;7.30;99.90
52044;DHT22;38053;53.100;6.078;2023-02-28T11:28:08;7.30;99.90
52044;DHT22;38053;53.100;6.078;2023-02-28T11:33:40;7.60;99.90
52044;DHT22;38053;53.100;6.078;2023-02-28T11:36:17;8.00;99.90
52044;DHT22;38053;53.100;6.078;2023-02-28T11:38:43;8.30;99.90
52044;DHT22;38053;53.100;6.078;2023-02-28T11:46:50;9.50;99.90
52044;DHT22;38053;53.100;6.078;2023-02-28T11:49:30;9.70;99.90
52044;DHT22;38053;53.100;6.078;2023-02-28T11:58:05;10.40;99.90
52044;DHT22;38053;53.100;6.078;2023-02-28T12:06:44;10.80;99.90
52044;DHT22;38053;53.100;6.078;2023-02-28T12:23:10;11.80;99.90
52044;DHT22;38053;53.100;6.078;2023-02-28T12:28:24;12.50;98.90
52044;DHT22;38053;53.100;6.078;2023-02-28T12:31:01;12.70;99.90
52044;DHT22;38053;53.100;6.078;2023-02-28T12:33:36;13.20;99.90
52044;DHT22;38053;53.100;6.078;2023-02-28T12:36:08;13.30;99.90
52044;DHT22;38053;53.100;6.078;2023-02-28T12:38:49;13.40;99.90
52044;DHT22;38053;53.100;6.078;2023-02-28T12:41:31;13.20;99.00
52044;DHT22;38053;53.100;6.078;2023-02-28T12:44:12;12.90;97.40
52044;DHT22;38053;53.100;6.078;2023-02-28T12:46:50;13.50;97.70
52044;DHT22;38053;53.100;6.078;2023-02-28T12:49:41;13.40;96.30
52044;DHT22;38053;53.100;6.078;2023-02-28T12:52:09;13.90;98.20
52044;DHT22;38053;53.100;6.078;2023-02-28T12:54:54;14.10;98.40
52044;DHT22;38053;53.100;6.078;2023-02-28T12:57:41;14.70;97.00
52044;DHT22;38053;53.100;6.078;2023-02-28T13:00:21;14.80;94.40
52044;DHT22;38053;53.100;6.078;2023-02-28T13:06:13;14.60;93.60
52044;DHT22;38053;53.100;6.078;2023-02-28T13:09:05;14.30;92.40
52044;DHT22;38053;53.100;6.078;2023-02-28T13:11:49;14.40;95.30
52044;DHT22;38053;53.100;6.078;2023-02-28T13:14:44;13.40;95.10
52044;DHT22;38053;53.100;6.078;2023-02-28T13:19:41;13.20;96.00
52044;DHT22;38053;53.100;6.078;2023-02-28T13:22:43;13.20;96.40
52044;DHT22;38053;53.100;6.078;2023-02-28T13:27:51;12.60;97.50
52044;DHT22;38053;53.100;6.078;2023-02-28T13:33:31;12.80;96.30
52044;DHT22;38053;53.100;6.078;2023-02-28T13:38:53;11.80;95.20
52044;DHT22;38053;53.100;6.078;2023-02-28T13:41:42;11.50;97.70
52044;DHT22;38053;53.100;6.078;2023-02-28T13:51:50;10.80;98.70
52044;DHT22;38053;53.100;6.078;2023-02-28T13:59:36;10.70;99.90
52044;DHT22;38053;53.100;6.078;2023-02-28T14:05:02;10.80;98.80
52044;DHT22;38053;53.100;6.078;2023-02-28T14:07:38;11.00;98.30
52044;DHT22;38053;53.100;6.078;2023-02-28T14:10:08;11.40;97.90
52044;DHT22;38053;53.100;6.078;2023-02-28T14:12:57;11.30;97.60
52044;DHT22;38053;53.100;6.078;2023-02-28T14:15:30;11.50;96.90
52044;DHT22;38053;53.100;6.078;2023-02-28T14:18:03;11.40;98.10
52044;DHT22;38053;53.100;6.078;2023-02-28T14:20:34;11.80;96.90
52044;DHT22;38053;53.100;6.078;2023-02-28T14:32:13;12.00;95.40
52044;DHT22;38053;53.100;6.078;2023-02-28T14:35:20;11.30;96.40
52044;DHT22;38053;53.100;6.078;2023-02-28T14:37:45;10.90;98.70
52044;DHT22;38053;53.100;6.078;2023-02-28T14:40:16;10.60;98.50
52044;DHT22;38053;53.100;6.078;2023-02-28T14:42:55;11.40;98.00
52044;DHT22;38053;53.100;6.078;2023-02-28T14:45:31;11.50;97.60
52044;DHT22;38053;53.100;6.078;2023-02-28T14:48:02;11.20;97.20
52044;DHT22;38053;53.100;6.078;2023-02-28T14:50:42;10.70;98.30
52044;DHT22;38053;53.100;6.078;2023-02-28T14:53:18;10.60;99.20
52044;DHT22;38053;53.100;6.078;2023-02-28T14:55:47;10.80;98.20
52044;DHT22;38053;53.100;6.078;2023-02-28T14:58:26;10.80;98.00
52044;DHT22;38053;53.100;6.078;2023-02-28T15:00:54;10.30;98.40
52044;DHT22;38053;53.100;6.078;2023-02-28T15:03:39;10.40;98.40
52044;DHT22;38053;53.100;6.078;2023-02-28T15:06:16;10.40;99.10
52044;DHT22;38053;53.100;6.078;2023-02-28T15:08:43;10.50;99.30
52044;DHT22;38053;53.100;6.078;2023-02-28T15:11:19;10.10;99.70
52044;DHT22;38053;53.100;6.078;2023-02-28T15:13:56;10.00;99.90
52044;DHT22;38053;53.100;6.078;2023-02-28T15:16:31;9.80;99.90
52044;DHT22;38053;53.100;6.078;2023-02-28T15:21:43;9.10;99.90
52044;DHT22;38053;53.100;6.078;2023-02-28T15:24:30;9.50;99.90
52044;DHT22;38053;53.100;6.078;2023-02-28T15:27:03;10.30;99.70
52044;DHT22;38053;53.100;6.078;2023-02-28T15:29:45;10.80;97.00
52044;DHT22;38053;53.100;6.078;2023-02-28T15:34:52;12.00;96.20
52044;DHT22;38053;53.100;6.078;2023-02-28T15:37:38;12.30;96.30
52044;DHT22;38053;53.100;6.078;2023-02-28T15:42:42;11.70;97.10
52044;DHT22;38053;53.100;6.078;2023-02-28T15:45:40;11.70;96.30
52044;DHT22;38053;53.100;6.078;2023-02-28T15:48:24;12.00;95.20
52044;DHT22;38053;53.100;6.078;2023-02-28T15:50:57;11.80;95.10
52044;DHT22;38053;53.100;6.078;2023-02-28T15:53:47;11.80;96.00
52044;DHT22;38053;53.100;6.078;2023-02-28T15:56:24;11.50;96.80
52044;DHT22;38053;53.100;6.078;2023-02-28T15:58:54;11.10;96.80
52044;DHT22;38053;53.100;6.078;2023-02-28T16:03:56;10.10;98.80
52044;DHT22;38053;53.100;6.078;2023-02-28T16:06:38;10.00;98.90
52044;DHT22;38053;53.100;6.078;2023-02-28T16:09:06;10.10;98.60
52044;DHT22;38053;53.100;6.078;2023-02-28T16:11:47;10.00;99.40
52044;DHT22;38053;53.100;6.078;2023-02-28T16:14:33;9.70;99.40
52044;DHT22;38053;53.100;6.078;2023-02-28T16:17:06;9.20;99.90
52044;DHT22;38053;53.100;6.078;2023-02-28T16:19:38;8.70;99.90
52044;DHT22;38053;53.100;6.078;2023-02-28T16:22:04;8.40;99.90
52044;DHT22;38053;53.100;6.078;2023-02-28T16:24:30;8.20;99.90
52044;DHT22;38053;53.100;6.078;2023-02-28T16:26:56;7.90;99.90
52044;DHT22;38053;53.100;6.078;2023-02-28T16:29:34;7.80;99.90
52044;DHT22;38053;53.100;6.078;2023-02-28T16:32:01;7.60;99.90
52044;DHT22;38053;53.100;6.078;2023-02-28T16:34:29;7.40;99.90
52044;DHT22;38053;53.100;6.078;2023-02-28T16:36:58;7.30;99.90
52044;DHT22;38053;53.100;6.078;2023-02-28T16:39:25;7.10;99.90
52044;DHT22;38053;53.100;6.078;2023-02-28T16:41:51;7.00;99.90
52044;DHT22;38053;53.100;6.078;2023-02-28T16:44:36;6.90;99.90
52044;DHT22;38053;53.100;6.078;2023-02-28T16:47:03;6.80;99.90
52044;DHT22;38053;53.100;6.078;2023-02-28T16:49:29;6.60;99.90
52044;DHT22;38053;53.100;6.078;2023-02-28T16:51:55;6.40;99.90
52044;DHT22;38053;53.100;6.078;2023-02-28T16:54:21;6.30;99.90
52044;DHT22;38053;53.100;6.078;2023-02-28T16:56:48;6.20;99.90
52044;DHT22;38053;53.100;6.078;2023-02-28T16:59:25;6.10;99.90
52044;DHT22;38053;53.100;6.078;2023-02-28T17:01:51;6.10;99.90
52044;DHT22;38053;53.100;6.078;2023-02-28T17:04:20;6.00;99.90
52044;DHT22;38053;53.100;6.078;2023-02-28T17:06:46;6.00;99.90
52044;DHT22;38053;53.100;6.078;2023-02-28T17:09:20;6.00;99.90
52044;DHT22;38053;53.100;6.078;2023-02-28T17:11:46;5.90;99.90
52044;DHT22;38053;53.100;6.078;2023-02-28T17:14:13;5.80;99.90
52044;DHT22;38053;53.100;6.078;2023-02-28T17:16:44;5.80;99.90
52044;DHT22;38053;53.100;6.078;2023-02-28T17:19:12;5.70;99.90
52044;DHT22;38053;53.100;6.078;2023-02-28T17:21:39;5.70;99.90
52044;DHT22;38053;53.100;6.078;2023-02-28T17:24:07;5.60;99.90
52044;DHT22;38053;53.100;6.078;2023-02-28T17:26:33;5.50;99.90
52044;DHT22;38053;53.100;6.078;2023-02-28T17:28:59;5.40;99.90
52044;DHT22;38053;53.100;6.078;2023-02-28T17:31:26;5.40;99.90
52044;DHT22;38053;53.100;6.078;2023-02-28T17:33:53;5.30;99.90
52044;DHT22;38053;53.100;6.078;2023-02-28T17:36:24;5.20;99.90
52044;DHT22;38053;53.100;6.078;2023-02-28T17:38:51;5.10;99.90
52044;DHT22;38053;53.100;6.078;2023-02-28T17:41:17;4.90;99.90
52044;DHT22;38053;53.100;6.078;2023-02-28T17:43:43;4.80;99.90
52044;DHT22;38053;53.100;6.078;2023-02-28T17:46:16;4.80;99.90
52044;DHT22;38053;53.100;6.078;2023-02-28T17:48:43;4.80;99.90
52044;DHT22;38053;53.100;6.078;2023-02-28T17:51:12;4.70;99.90
52044;DHT22;38053;53.100;6.078;2023-02-28T17:53:37;4.70;99.90
52044;DHT22;38053;53.100;6.078;2023-02-28T17:56:03;4.70;99.90
52044;DHT22;38053;53.100;6.078;2023-02-28T17:58:32;4.70;99.90
52044;DHT22;38053;53.100;6.078;2023-02-28T18:01:00;4.60;99.90
52044;DHT22;38053;53.100;6.078;2023-02-28T18:03:28;4.60;99.90
52044;DHT22;38053;53.100;6.078;2023-02-28T18:06:00;4.60;99.90
52044;DHT22;38053;53.100;6.078;2023-02-28T18:08:27;4.50;99.90
52044;DHT22;38053;53.100;6.078;2023-02-28T18:10:52;4.40;99.90
52044;DHT22;38053;53.100;6.078;2023-02-28T18:13:21;4.40;99.90
52044;DHT22;38053;53.100;6.078;2023-02-28T18:15:47;4.30;99.90
52044;DHT22;38053;53.100;6.078;2023-02-28T18:18:13;4.30;99.90
52044;DHT22;38053;53.100;6.078;2023-02-28T18:20:41;4.20;99.90
52044;DHT22;38053;53.100;6.078;2023-02-28T18:23:08;4.10;99.90
52044;DHT22;38053;53.100;6.078;2023-02-28T18:25:34;4.10;99.90
52044;DHT22;38053;53.100;6.078;2023-02-28T18:28:00;4.00;99.90
52044;DHT22;38053;53.100;6.078;2023-02-28T18:30:28;4.00;99.90
52044;DHT22;38053;53.100;6.078;2023-02-28T18:32:58;4.00;99.90